Date,TemperatureHighF,TemperatureAvgF,TemperatureLowF,DewpointHighF,DewpointAvgF,DewpointLowF,HumidityHigh,HumidityAvg,HumidityLow,PressureMaxIn,PressureMinIn,WindSpeedMaxMPH,WindSpeedAvgMPH,GustSpeedMaxMPH,PrecipitationSumIn
2012-1-1,51,42,39,47,23,-100,90,68,62,30.03,29.61,13,-114,24,0.08
2012-1-2,50,40,31,44,20,13,83,46,35,29.77,29.60,15,8,29,0.08
2012-1-3,31,26,17,20,8,-5,65,48,31,30.07,29.75,12,7,23,0.00
2012-1-4,28,20,12,13,1,-6,54,43,25,30.17,29.91,11,6,20,0.00
2012-1-5,40,33,27,24,21,13,83,62,45,29.92,29.79,12,5,20,0.00
2012-1-6,56,45,30,31,27,20,73,51,32,29.90,29.68,11,4,23,0.00
2012-1-7,66,53,43,37,31,28,59,44,29,29.90,29.65,12,5,25,0.00
2012-1-8,49,42,35,30,24,16,63,48,39,30.24,29.90,9,4,16,0.00
2012-1-9,40,35,31,26,21,16,68,56,46,30.25,29.94,7,2,12,0.00
2012-1-10,48,39,32,30,26,22,86,61,42,29.93,29.81,11,4,21,0.00
2012-1-11,47,40,29,44,31,23,92,71,51,30.03,29.72,8,2,18,0.18
2012-1-12,52,46,44,52,45,42,99,96,92,29.72,29.32,12,4,24,0.95
2012-1-13,51,38,29,47,27,10,98,65,41,29.76,29.21,20,10,41,0.01
2012-1-14,33,30,26,16,14,12,64,52,44,30.01,29.78,15,7,25,0.01
2012-1-15,26,22,17,17,2,-7,69,41,27,30.49,30.01,11,6,20,0.00
2012-1-16,40,27,14,27,12,-1,65,54,41,30.53,30.10,10,4,20,0.00
2012-1-17,56,44,37,48,40,26,96,84,58,30.10,29.48,13,6,27,0.24
2012-1-18,56,41,26,48,20,6,75,45,27,30.10,29.49,17,9,31,0.01
2012-1-19,37,30,24,25,17,4,68,57,39,30.17,29.88,9,3,17,0.00
2012-1-20,36,32,28,24,13,1,62,46,27,30.17,29.88,10,5,17,0.00
2012-1-24,56,48,42,39,34,30,64,57,48,30.06,29.90,10,6,19,0.08
2012-1-25,47,42,38,31,28,25,68,57,46,30.23,30.06,9,4,21,0.00
2012-1-26,46,40,35,45,34,27,95,80,65,30.16,29.76,4,1,12,0.04
2012-1-27,60,51,44,59,46,30,99,83,55,29.78,29.27,21,8,38,0.22
2012-1-28,46,42,34,32,28,17,72,59,37,29.98,29.78,12,4,27,0.06
2012-1-29,46,39,33,20,12,8,46,33,26,30.15,29.96,12,6,21,0.00
2012-1-30,40,37,33,23,15,9,55,42,29,30.25,29.96,14,6,24,0.00
2012-1-31,63,50,35,33,28,13,64,43,26,30.20,29.96,10,5,22,0.00
2012-2-1,65,56,49,43,38,30,72,51,42,29.96,29.81,13,6,25,0.02
2012-2-2,52,44,38,39,31,21,73,61,50,30.16,29.91,10,4,19,0.01
2012-2-3,45,37,32,21,19,17,59,47,32,30.37,30.16,11,5,18,0.00
2012-2-4,45,39,31,26,23,20,70,54,43,30.29,30.02,5,2,10,0.00
2012-2-5,41,36,30,26,22,17,66,55,42,30.11,30.02,7,3,15,0.00
2012-2-6,53,40,28,27,23,17,67,52,30,30.11,29.91,13,5,20,0.00
2012-2-7,51,42,36,29,27,24,71,56,35,30.14,29.90,8,5,18,0.00
2012-2-8,40,35,33,31,26,17,94,70,50,30.23,30.02,6,2,12,0.00
2012-2-9,44,35,30,31,26,20,94,72,38,30.07,29.99,9,5,17,0.05
2012-2-10,46,43,36,37,28,19,83,57,36,30.08,29.85,10,4,16,0.00
2012-2-11,38,35,33,34,30,21,95,81,51,29.85,29.48,8,3,19,0.17
2012-2-12,33,27,20,28,10,-1,85,50,34,29.92,29.57,17,9,30,0.02
2012-2-13,43,34,26,20,15,11,60,47,31,29.99,29.90,13,7,25,0.00
2012-2-14,46,40,34,37,25,10,89,56,26,30.04,29.93,11,3,20,0.06
2012-2-15,46,43,38,42,38,30,92,82,64,30.20,29.97,5,2,10,0.06
2012-2-16,44,39,31,42,35,28,96,86,76,30.22,29.96,5,1,10,0.11
2012-2-17,52,45,36,43,34,19,97,69,31,29.96,29.85,11,4,19,0.09
2012-2-18,47,40,32,37,26,19,82,56,38,30.02,29.80,12,4,23,0.02
2012-2-19,43,39,33,30,25,19,74,58,39,30.01,29.85,7,3,18,0.02
2012-2-20,46,38,31,24,18,11,61,44,25,30.25,29.87,12,6,24,0.00
2012-2-21,46,39,26,39,28,18,81,65,46,30.28,29.79,15,5,30,0.00
2012-2-22,60,47,38,42,36,22,93,71,25,29.79,29.41,13,4,23,0.00
2012-2-23,61,53,46,45,36,22,87,57,26,29.69,29.31,16,6,28,0.00
2012-2-24,47,44,40,46,40,34,96,85,62,29.67,29.24,13,5,28,0.36
2012-2-25,44,41,36,34,22,13,69,47,38,29.95,29.36,21,13,40,0.17
2012-2-26,45,37,31,22,13,8,66,39,27,30.37,29.95,12,6,25,0.00
2012-2-27,54,44,33,38,32,23,80,64,48,30.36,30.02,12,5,25,0.00
2012-2-28,52,44,36,33,24,18,77,46,27,30.31,30.05,11,5,22,0.00
2012-2-29,45,42,37,43,38,30,97,85,72,30.29,29.67,7,3,16,0.55
2012-3-1,45,42,40,44,40,34,98,91,79,29.88,29.56,8,3,16,0.35
2012-3-2,45,40,36,43,34,30,92,79,73,30.05,29.72,9,4,25,0.06
2012-3-3,57,52,45,53,40,19,98,70,27,29.72,29.39,13,7,26,0.22
2012-3-4,46,41,36,23,20,15,57,42,32,29.69,29.50,10,5,21,0.01
2012-3-5,45,37,31,23,15,2,65,41,26,30.29,29.69,10,6,20,0.00
2012-3-6,41,33,26,27,13,-100,67,45,26,30.55,30.29,13,-10,20,0.00
2012-3-7,65,48,36,44,34,24,75,61,24,30.52,30.26,10,5,20,0.00
2012-3-8,71,60,53,50,47,43,75,63,41,30.26,29.80,16,8,35,0.00
2012-3-9,64,47,39,51,28,16,80,48,28,30.19,29.78,12,7,32,0.03
2012-3-10,42,36,30,20,12,4,55,37,28,30.46,30.19,10,4,19,0.03
2012-3-11,61,46,34,35,23,-100,61,43,24,30.46,30.27,11,5,20,0.00
2012-3-12,66,54,43,44,36,31,67,53,30,30.29,30.06,11,4,17,0.00
2012-3-13,75,61,51,56,52,44,95,72,45,30.06,29.86,9,3,19,0.16
2012-3-14,72,62,49,55,40,19,83,53,14,30.11,29.91,10,4,19,0.06
2012-3-15,49,46,44,44,42,39,96,88,72,30.25,30.10,7,3,18,0.00
2012-3-16,48,45,44,47,44,43,98,97,92,30.22,30.05,6,2,16,0.02
2012-3-17,55,47,40,51,44,39,99,91,69,30.29,30.11,8,2,14,0.01
2012-3-18,55,48,45,48,45,43,96,88,72,30.31,30.14,7,2,13,0.01
2012-3-19,68,58,47,55,48,36,91,72,33,30.16,30.09,11,4,19,0.00
2012-3-20,61,54,51,55,51,-100,98,92,77,30.26,30.16,2,0,7,0.01
2012-3-21,61,56,53,58,54,52,99,96,84,30.29,30.22,7,1,14,0.01
2012-3-22,62,58,56,62,55,-100,99,92,78,30.22,30.02,7,-5,14,0.01
2012-3-23,70,60,52,59,53,45,97,78,59,30.03,29.96,7,2,18,0.01
2012-3-24,57,52,48,49,44,40,92,76,57,30.02,29.90,6,3,18,0.10
2012-3-25,50,47,44,46,43,41,94,86,78,29.90,29.67,9,4,19,0.25
2012-3-26,55,47,37,46,26,4,95,51,18,30.03,29.63,16,7,32,0.01
2012-3-27,52,40,31,20,3,-1,41,22,11,30.20,30.03,12,5,21,0.00
2012-3-28,69,55,41,50,35,17,65,48,34,30.09,29.46,12,6,24,0.05
2012-3-29,63,54,44,49,36,26,63,50,39,29.94,29.49,13,7,24,0.05
2012-3-30,53,45,40,36,28,22,69,51,31,30.02,29.87,10,5,20,0.00
2012-3-31,46,43,41,43,40,35,95,89,66,29.91,29.77,8,4,19,0.42
2012-4-1,50,45,42,44,40,38,93,82,65,29.84,29.54,12,3,19,0.12
2012-4-2,57,49,42,45,30,13,96,55,19,29.80,29.50,14,6,25,0.30
2012-4-3,66,52,40,26,17,11,45,27,14,29.87,29.69,12,5,21,0.01
2012-4-4,71,60,52,32,25,17,44,27,17,29.70,29.44,12,4,22,0.00
2012-4-5,58,49,40,36,28,19,66,46,29,29.83,29.64,12,5,24,0.01
2012-4-6,58,48,39,27,22,14,58,37,18,29.93,29.80,9,4,19,0.01
2012-4-7,61,51,39,22,16,10,47,27,15,30.00,29.87,11,6,21,0.00
2012-4-8,67,56,42,32,19,16,45,25,14,29.95,29.58,15,6,30,0.00
2012-4-9,63,57,50,31,23,18,40,27,19,29.68,29.56,19,11,40,0.03
2012-4-10,61,54,47,36,27,21,61,37,22,29.73,29.60,15,6,26,0.03
2012-4-11,50,44,40,36,32,30,73,62,48,29.78,29.70,6,4,14,0.01
2012-4-17,81,73,64,36,29,25,28,20,13,30.05,29.99,6,3,13,0.00
2012-4-18,65,56,51,42,35,26,69,46,28,30.18,30.05,7,3,14,0.00
2012-4-19,61,55,50,50,46,41,85,72,55,30.06,29.94,9,2,17,0.00
2012-4-20,63,55,46,53,49,44,94,80,61,29.97,29.79,4,1,10,0.00
2012-4-21,67,59,55,57,55,53,97,87,70,29.79,29.61,12,4,23,0.02
2012-4-22,62,52,49,58,48,-100,98,89,77,29.71,29.16,12,5,25,2.46
2012-4-23,57,51,43,56,46,34,99,83,62,29.36,29.04,9,5,21,2.01
2012-4-24,60,49,38,44,31,-100,84,56,22,29.64,29.36,14,6,30,0.03
2012-4-25,63,50,37,45,35,26,86,59,25,29.83,29.64,12,2,21,0.00
2012-4-26,57,50,38,54,47,34,98,88,76,29.85,29.52,7,2,16,0.01
2012-4-27,58,52,44,57,33,24,99,51,31,30.08,29.52,13,7,25,0.01
2012-4-28,60,48,36,33,26,21,71,43,25,30.18,30.04,7,4,18,0.01
2012-4-29,66,54,41,36,22,-100,69,35,13,30.15,29.98,11,4,24,0.00
2012-4-30,55,50,36,45,31,18,75,50,26,30.27,30.14,11,4,24,0.00
2012-5-1,72,59,53,61,54,45,97,82,59,30.14,29.89,10,3,22,0.34
2012-5-2,54,51,50,51,49,46,96,92,86,30.11,30.01,6,3,16,0.37
2012-5-3,56,53,51,53,51,48,98,94,89,30.13,30.00,10,2,19,0.13
2012-5-4,75,58,54,63,56,53,99,93,64,30.03,29.85,7,2,12,0.02
2012-5-7,59,56,54,52,48,44,94,75,64,30.09,30.03,10,5,18,0.01
2012-5-8,65,59,55,55,52,47,86,75,64,30.03,29.76,14,7,29,0.01
2012-5-9,66,63,60,65,62,55,98,96,80,29.76,29.49,8,3,18,0.86
2012-5-10,66,60,51,60,46,31,96,65,30,29.78,29.43,12,4,26,0.30
2012-5-11,71,59,47,41,35,27,73,45,19,30.04,29.78,13,4,30,0.01
2012-5-12,74,62,47,52,42,37,73,50,27,30.16,30.04,10,2,20,0.00
2012-5-13,84,69,60,59,50,-100,64,52,25,30.12,30.01,9,4,19,0.00
2012-5-14,71,65,62,59,57,53,86,74,58,30.09,30.03,9,5,18,0.00
2012-5-15,66,61,59,65,59,56,98,92,81,30.05,29.86,9,4,21,0.33
2012-5-16,74,66,58,66,62,57,99,87,67,29.87,29.77,8,2,16,0.05
2012-5-17,71,64,54,61,44,35,82,52,27,30.05,29.82,7,2,15,0.01
2012-5-18,67,58,47,55,46,41,92,66,45,30.16,30.05,6,1,13,0.00
2012-5-19,75,60,48,51,46,37,90,62,31,30.11,30.05,5,1,12,0.00
2012-5-20,69,61,52,58,49,-100,95,69,35,30.16,30.06,6,2,15,0.00
2012-5-21,61,60,59,61,60,58,99,99,95,30.13,29.91,5,2,13,1.49
2012-5-22,69,64,61,63,62,60,99,93,78,29.91,29.75,5,1,12,0.29
2012-5-23,74,66,63,66,63,62,98,90,74,29.96,29.79,9,2,20,0.01
2012-5-24,65,64,62,65,63,62,99,98,96,30.11,29.96,8,2,14,0.10
2012-5-25,73,66,62,68,65,62,100,96,79,30.12,30.05,6,2,14,0.01
2012-5-26,84,74,65,71,67,64,99,81,61,30.08,30.00,8,3,18,0.01
2012-5-27,76,73,69,69,63,-100,92,75,53,30.09,29.94,8,2,15,0.00
2012-5-28,84,76,71,69,67,65,88,73,56,29.94,29.84,8,3,15,0.00
2012-5-29,89,80,73,72,69,62,87,70,49,29.84,29.64,10,5,24,0.00
2012-5-30,77,72,67,68,65,58,93,79,52,29.71,29.64,5,1,7,0.00
2012-5-31,82,73,63,67,56,46,99,62,28,29.85,29.63,7,2,17,0.01
2012-6-1,69,65,62,64,59,54,93,81,65,29.94,29.68,11,6,26,0.13
2012-6-2,77,69,61,68,56,45,99,68,39,29.70,29.58,11,4,24,1.32
2012-6-3,78,65,54,56,49,-100,82,60,35,29.70,29.57,11,4,33,0.03
2012-6-4,62,59,55,56,51,46,94,78,59,29.72,29.53,9,3,25,0.71
2012-6-5,66,59,53,52,47,43,84,65,48,29.88,29.72,8,2,16,0.01
2012-6-6,69,61,50,56,52,48,93,73,50,29.93,29.87,8,2,15,0.00
2012-6-7,73,65,58,60,56,52,88,74,52,29.92,29.85,7,3,17,0.02
2012-6-8,83,69,57,63,56,47,93,66,30,29.88,29.76,10,2,19,0.02
2012-6-9,83,73,65,60,55,52,71,55,38,29.91,29.79,5,2,14,0.01
2012-6-10,80,72,66,67,63,-100,94,77,58,30.10,29.90,7,2,16,0.03
2012-6-11,71,68,65,65,62,58,94,82,71,30.17,30.08,8,4,20,0.01
2012-6-12,68,66,65,67,65,62,98,94,89,30.11,29.81,9,5,19,0.47
2012-6-13,68,66,64,68,65,63,99,97,92,29.98,29.76,9,3,19,0.41
2012-6-14,71,66,61,64,61,58,97,85,72,30.18,29.98,6,2,15,0.03
2012-6-15,75,66,55,60,54,46,97,69,40,30.22,30.16,7,2,15,0.00
2012-6-16,76,66,55,58,55,48,93,70,38,30.25,30.16,10,2,16,0.00
2012-6-17,66,62,59,57,53,-100,80,73,64,30.17,30.03,6,3,14,0.00
2012-6-18,67,62,55,57,54,51,87,75,61,30.08,30.02,7,2,15,0.00
2012-6-19,73,67,62,65,61,56,87,81,74,30.11,30.01,9,3,19,0.00
2012-6-20,98,83,68,73,68,62,89,62,37,30.02,29.87,7,3,15,0.00
2012-6-21,97,88,77,71,68,64,77,54,34,29.87,29.71,7,3,16,0.00
2012-6-22,93,80,71,72,69,64,96,70,44,29.77,29.68,9,2,18,0.27
2012-6-23,88,77,69,70,60,48,97,63,29,29.90,29.73,9,3,16,0.28
2012-6-24,80,72,62,66,59,53,87,65,40,29.94,29.83,9,3,19,0.01
2012-6-25,77,70,63,70,64,57,96,80,51,29.84,29.58,9,2,25,1.19
2012-6-26,75,66,57,58,50,45,87,58,41,29.71,29.62,9,4,20,0.21
2012-6-27,84,72,61,53,48,46,60,44,27,29.77,29.66,13,4,25,0.00
2012-6-28,93,79,66,60,55,51,64,46,27,29.78,29.65,8,3,20,0.00
2012-6-29,96,83,70,72,67,59,93,60,41,29.67,29.56,8,4,18,0.10
2012-6-30,95,85,75,71,65,54,80,54,25,29.72,29.59,8,3,20,0.06
2012-7-1,96,84,71,68,64,59,80,54,30,29.78,29.67,8,3,17,0.00
2012-7-2,89,80,68,60,56,51,72,46,27,29.85,29.77,7,2,14,0.00
2012-7-3,89,78,67,71,61,54,78,58,31,29.89,29.76,10,3,18,0.00
2012-7-4,95,83,72,72,68,65,89,62,39,29.79,29.65,7,3,17,0.15
2012-7-5,95,85,77,73,67,57,80,58,29,29.78,29.64,8,3,17,0.04
2012-7-6,83,79,69,72,68,65,88,68,56,29.86,29.78,8,2,16,0.00
2012-7-7,99,85,75,72,67,60,85,60,31,29.81,29.69,10,4,34,0.13
2012-7-8,86,80,74,73,68,62,94,69,47,29.80,29.73,6,2,15,0.13
2012-7-9,79,76,72,69,61,57,79,59,48,29.91,29.78,9,3,16,0.00
2012-7-10,81,74,67,68,63,59,80,69,49,30.01,29.90,9,2,17,0.00
2012-7-11,80,74,66,69,66,63,94,75,61,30.11,30.01,8,2,15,0.00
2012-7-12,81,75,66,66,63,57,91,67,44,30.13,30.08,11,3,19,0.00
2012-7-13,88,77,69,68,64,59,79,64,43,30.13,30.07,8,2,15,0.00
2012-7-14,84,78,72,68,64,60,79,63,45,30.13,30.07,8,3,16,0.00
2012-7-15,90,80,73,75,71,64,94,74,55,30.09,29.86,11,3,25,0.61
2012-7-16,93,81,70,71,69,66,95,71,44,29.88,29.72,6,3,15,0.62
2012-7-17,96,86,71,69,64,59,78,51,30,29.79,29.68,10,4,20,0.00
2012-7-18,101,84,74,75,71,67,96,67,35,29.82,29.70,10,3,18,0.21
2012-7-19,75,74,73,74,71,66,97,91,76,29.91,29.79,7,2,18,0.22
2012-7-22,-200,0,200,-100,-100,-100,0,0,100,30.07,30.04,0,-999,0,0.00
2012-7-23,89,36,80,75,-25,-100,79,31,52,30.06,29.74,8,-561,18,0.00
2012-7-24,95,41,85,71,-26,-100,62,18,31,29.75,29.50,11,-549,21,0.00
2012-7-25,87,36,75,64,-31,-100,64,19,27,29.82,29.64,7,-552,14,0.00
2012-7-26,93,40,75,73,-21,-100,87,29,48,29.75,29.55,11,-536,21,0.00
2012-7-27,92,35,83,71,-32,-100,68,22,43,29.79,29.59,8,-597,17,0.00
2012-7-28,84,32,74,76,-29,-100,92,35,74,29.90,29.78,6,-589,14,0.03
2012-7-29,78,30,74,68,-36,-100,78,28,66,29.97,29.83,5,-599,11,0.01
2012-7-30,77,32,74,66,-30,-100,73,29,67,30.05,29.97,8,-575,17,0.00
2012-7-31,79,30,74,68,-34,-100,77,28,61,30.01,29.84,5,-603,12,0.00
2012-8-1,80,26,74,72,-43,-100,90,27,62,29.87,29.76,10,-663,19,0.04
2012-8-2,87,37,79,72,-23,-100,75,31,58,29.85,29.77,9,-549,21,0.01
2012-8-3,87,33,81,75,-32,-100,77,27,59,30.02,29.85,8,-608,19,0.00
2012-8-4,84,15,82,75,-68,-100,78,14,72,30.13,30.02,9,-813,18,0.00
2012-8-6,89,52,79,72,4,-100,75,36,38,29.93,29.88,3,-376,12,0.00
2012-8-7,82,36,77,65,-24,-100,65,28,54,29.96,29.90,2,-535,11,0.00
2012-8-8,83,35,79,73,-26,-100,82,33,70,29.93,29.86,5,-568,12,0.00
2012-8-9,84,35,79,74,-26,-100,84,32,60,29.90,29.80,10,-564,22,0.00
2012-8-10,79,15,75,74,-65,-100,93,17,83,29.83,29.69,3,-799,20,0.19
2012-8-11,84,28,76,76,-38,-100,89,29,66,29.85,29.72,8,-641,22,0.03
2012-8-12,86,31,80,70,-39,-100,72,20,40,29.88,29.80,5,-629,16,0.03
2012-8-13,87,34,79,63,-36,-100,56,17,34,29.94,29.87,6,-592,17,0.00
2012-8-14,79,33,75,74,-28,-100,90,34,76,29.90,29.80,5,-576,16,0.10
2012-8-15,84,26,69,73,-45,-100,89,24,62,29.82,29.75,6,-674,13,0.94
2012-8-16,87,35,74,66,-32,-100,76,21,38,29.84,29.79,5,-576,14,0.58
2012-8-17,90,35,81,71,-31,-100,67,23,41,29.83,29.70,7,-584,19,0.00
2012-8-18,78,28,67,63,-40,-100,85,24,55,29.85,29.76,4,-626,11,0.00
2012-8-19,78,28,72,56,-43,-100,58,19,42,29.91,29.85,2,-630,7,0.00
2012-8-20,77,34,73,60,-28,-100,62,25,45,29.86,29.78,5,-545,12,0.00
2012-8-21,80,19,74,63,-60,-100,62,15,50,30.02,29.85,2,-749,8,0.00
2012-8-22,81,35,75,68,-26,-100,71,29,60,30.08,30.02,8,-552,16,0.00
2012-8-23,83,32,76,67,-34,-100,72,24,53,30.09,30.03,7,-596,15,0.00
2012-8-24,81,35,72,69,-26,-100,79,30,61,30.11,30.05,4,-556,12,0.00
2012-8-25,81,33,75,72,-28,-100,80,31,71,30.19,30.11,4,-576,15,0.00
2012-8-26,78,36,74,67,-22,-100,78,33,65,30.24,30.15,5,-531,14,0.00
2012-8-27,79,25,75,74,-45,-100,91,26,75,30.14,29.89,7,-679,19,0.27
2012-8-28,88,33,76,72,-35,-100,88,20,36,29.89,29.73,8,-602,16,0.27
2012-8-29,80,31,74,57,-38,-100,55,19,39,29.94,29.82,5,-596,15,0.00
2012-8-30,84,38,68,59,-26,-100,66,20,34,30.03,29.94,6,-520,12,0.00
2012-8-31,92,39,74,69,-29,-100,83,19,27,29.99,29.83,8,-552,16,0.00
2012-9-1,91,33,77,71,-37,-100,82,20,35,29.97,29.86,7,-613,17,0.00
2012-9-2,80,31,76,71,-32,-100,83,31,70,30.00,29.94,4,-594,13,0.00
2012-9-3,76,23,73,68,-49,-100,83,22,70,30.07,29.99,6,-693,21,0.00
2012-9-4,78,14,74,73,-69,-100,96,16,82,30.00,29.79,5,-821,15,0.00
2012-9-5,84,13,78,76,-72,-100,90,13,70,29.79,29.70,7,-837,15,0.27
2012-9-6,78,33,71,71,-26,-100,91,35,74,29.84,29.76,3,-560,7,0.04
2012-9-7,85,36,74,73,-24,-100,88,32,63,29.86,29.78,10,-555,16,0.00
2012-9-8,81,35,76,76,-23,-100,95,38,77,29.80,29.52,13,-552,30,0.16
2012-9-9,78,33,64,63,-28,-100,94,28,51,29.80,29.70,4,-552,11,0.16
2012-9-10,73,38,60,51,-18,-100,61,25,35,30.05,29.80,8,-437,17,0.00
2012-9-11,76,62,51,53,47,39,85,59,29,30.21,30.06,4,1,11,0.00
2012-9-12,79,66,54,57,53,50,91,66,39,30.29,30.21,8,1,15,0.00
2012-9-13,77,67,56,61,58,54,95,74,50,30.31,30.20,9,1,17,0.00
2012-9-14,75,68,57,63,60,56,96,78,53,30.21,30.02,8,2,18,0.00
2012-9-15,73,67,57,61,52,46,88,62,40,30.06,29.99,11,3,21,0.00
2012-9-16,76,63,52,53,50,46,89,64,35,30.06,29.96,4,0,11,0.00
2012-9-17,78,65,51,61,51,47,89,64,36,30.05,29.96,10,1,17,0.00
2012-9-18,77,73,68,71,67,61,97,82,75,29.96,29.61,18,9,36,1.00
2012-9-19,71,64,55,67,50,42,97,63,36,30.09,29.67,9,2,19,0.96
2012-9-20,70,64,54,60,55,47,83,72,58,30.11,30.03,6,1,14,0.02
2012-9-21,71,65,57,60,57,55,95,77,58,30.03,29.94,4,1,11,0.01
2012-9-22,75,67,55,67,62,53,96,84,74,29.94,29.73,14,4,26,0.19
2012-9-23,70,63,54,65,48,-100,96,64,33,30.04,29.79,8,2,16,0.19
2012-9-24,69,58,50,47,43,36,83,61,31,30.09,30.03,8,1,14,0.00
2012-9-25,74,62,49,54,48,40,82,61,39,30.14,30.05,9,3,18,0.00
2012-9-26,81,71,64,63,59,54,75,65,47,30.08,29.94,6,2,18,0.00
2012-9-27,75,68,64,65,62,60,93,83,64,30.10,29.97,6,0,12,0.06
2012-9-28,76,70,65,70,66,63,93,87,74,30.07,29.85,8,2,17,0.09
2012-9-29,67,62,57,63,56,53,95,83,64,29.86,29.80,4,1,9,0.07
2012-9-30,70,61,55,55,51,46,94,73,43,29.80,29.70,8,1,14,0.01
2012-10-1,72,61,50,51,48,44,90,65,37,29.90,29.76,10,2,19,0.01
2012-10-2,71,66,61,70,60,50,99,82,65,29.94,29.87,4,0,13,0.18
2012-10-3,71,68,66,70,68,66,99,99,98,30.04,29.90,2,0,7,0.13
2012-10-4,73,69,67,72,68,66,99,97,88,30.06,29.96,3,0,8,0.03
2012-10-5,79,68,60,66,60,53,98,77,41,30.00,29.87,7,1,13,0.03
2012-10-6,80,67,54,62,56,47,87,69,48,29.93,29.68,11,3,21,0.01
2012-10-7,54,50,46,50,46,41,93,84,66,30.05,29.93,6,1,12,0.12
2012-10-8,57,50,43,47,44,42,96,80,59,30.20,30.04,4,0,10,0.07
2012-10-9,60,57,56,59,52,45,96,84,66,30.13,29.99,5,1,15,0.24
2012-10-10,68,62,57,60,54,40,99,78,47,29.99,29.73,13,3,25,1.25
2012-10-11,61,53,46,41,36,31,71,55,33,30.14,29.90,9,3,17,0.01
2012-10-12,59,50,44,43,36,26,88,60,39,30.34,30.01,10,4,21,0.00
2012-10-13,53,48,39,41,30,21,74,50,35,30.44,30.23,6,1,16,0.00
2012-10-14,74,62,50,57,50,42,79,66,41,30.23,29.89,10,4,22,0.00
2012-10-15,76,68,61,63,59,57,93,76,57,29.89,29.56,9,4,23,0.03
2012-10-16,60,55,44,58,42,34,93,64,41,29.85,29.59,12,4,22,0.04
2012-10-17,60,50,40,47,42,37,92,75,50,29.94,29.84,2,0,8,0.00
2012-10-18,65,55,41,61,49,39,94,82,63,29.96,29.84,9,2,19,0.00
2012-10-19,67,65,63,65,63,58,98,95,83,29.85,29.58,9,4,19,0.19
2012-10-20,72,62,53,63,52,41,99,72,36,29.78,29.59,7,2,15,0.02
2012-10-21,66,58,52,43,41,39,67,53,38,29.97,29.77,8,3,17,0.00
2012-10-22,68,57,48,44,42,40,74,58,37,30.05,29.94,10,3,17,0.00
2012-10-23,68,57,46,56,48,43,91,73,51,30.05,29.99,1,0,4,0.01
2012-10-24,61,60,58,58,56,54,94,89,82,30.11,30.01,2,0,9,0.01
2012-10-25,63,60,54,56,55,52,92,84,77,30.19,30.11,2,0,10,0.00
2012-10-26,67,62,55,59,58,53,94,88,74,30.16,30.03,1,0,7,0.00
2012-10-27,65,62,60,59,54,47,90,76,66,30.03,29.82,4,1,15,0.00
2012-10-28,60,58,56,54,49,41,92,74,53,29.83,29.53,10,4,28,0.01
2012-10-29,57,55,53,55,51,48,95,87,73,29.53,29.02,18,10,37,0.47
2012-11-2,52,49,44,34,32,30,60,53,45,29.70,29.55,11,7,20,0.00
2012-11-3,50,45,40,32,30,27,70,56,44,29.88,29.70,11,7,23,0.00
2012-11-4,50,43,36,33,30,27,71,59,49,29.93,29.85,9,4,17,0.00
2012-11-5,46,42,38,32,26,21,64,53,40,30.09,29.89,7,3,16,0.00
2012-11-6,45,40,36,32,24,20,66,52,41,30.15,29.95,5,2,17,0.00
2012-11-7,44,38,33,35,33,31,96,81,65,29.96,29.69,13,5,26,0.28
2012-11-8,46,39,33,33,27,22,96,65,41,29.84,29.65,9,3,20,0.77
2012-11-9,54,44,36,33,27,23,62,51,30,30.13,29.84,10,4,21,0.06
2012-11-10,56,47,38,42,36,32,87,67,45,30.34,30.13,4,1,8,0.04
2012-11-11,62,53,40,52,48,38,96,84,67,30.41,30.34,8,2,18,0.01
2012-11-12,64,57,50,59,55,50,99,92,75,30.40,30.14,10,4,21,0.00
2012-11-13,60,50,40,59,43,29,96,80,61,30.35,30.05,8,4,18,0.01
2012-11-14,46,42,39,32,28,-100,69,59,53,30.43,30.35,8,3,20,0.18
2012-11-15,45,42,38,34,32,29,82,68,59,30.37,30.22,6,1,14,0.18
2012-11-16,50,41,34,34,30,26,80,65,44,30.34,30.19,7,1,12,0.00
2012-11-17,53,44,35,35,32,26,86,63,50,30.54,30.34,7,2,18,0.00
2012-11-18,50,46,34,41,38,30,88,73,60,30.57,30.46,5,2,16,0.00
2012-11-19,48,46,43,43,40,38,83,78,73,30.46,30.16,10,3,20,0.00
2012-11-20,51,46,39,40,37,33,89,73,50,30.16,30.03,7,0,10,0.00
2012-11-21,53,46,38,40,36,32,82,67,47,30.14,30.05,6,1,14,0.00
2012-11-22,54,46,37,45,40,34,90,80,62,30.19,30.06,3,1,12,0.00
2012-11-23,55,45,35,46,41,32,96,86,65,30.06,29.62,8,2,15,0.03
2012-11-24,48,41,36,45,25,20,89,53,40,29.79,29.60,15,8,29,0.03
2012-11-25,42,36,32,23,21,17,67,53,43,29.91,29.80,10,4,22,0.00
2012-11-26,49,39,31,25,23,20,67,54,32,30.16,29.90,10,2,17,0.00
2012-11-27,43,39,32,40,34,23,93,83,64,30.21,30.10,7,2,15,0.45
2012-11-28,42,37,31,35,27,21,85,66,45,30.22,30.09,11,4,21,0.20
2012-11-29,46,37,32,26,22,20,65,55,38,30.30,30.20,10,3,20,0.01
2012-11-30,49,42,31,42,32,24,86,70,46,30.33,30.24,7,2,18,0.00
2012-12-1,48,45,43,43,41,39,91,86,81,30.40,30.32,7,3,19,0.00
2012-12-2,53,47,41,49,44,40,98,90,75,30.34,30.05,5,2,12,0.03
2012-12-3,63,54,46,51,47,43,92,79,54,30.19,30.04,7,2,15,0.03
2012-12-4,61,54,45,53,51,43,97,91,73,30.19,29.93,8,3,17,0.00
2012-12-5,58,52,36,52,38,18,92,62,40,30.16,29.84,10,5,21,0.00
2012-12-6,41,34,29,21,17,-100,73,54,38,30.29,30.15,7,2,15,0.00
2012-12-7,47,40,29,45,35,21,92,83,73,30.22,29.94,3,0,9,0.14
2012-12-8,52,50,47,51,48,45,99,96,90,29.94,29.80,5,1,11,0.55
2012-12-9,54,48,44,53,46,39,99,93,82,30.16,29.91,6,2,16,0.23
2012-12-10,60,56,50,60,56,50,99,99,98,29.91,29.49,4,1,9,0.38
2012-12-11,60,47,43,60,38,31,99,72,52,30.11,29.49,9,3,21,0.10
2012-12-12,45,40,35,31,27,22,75,59,41,30.35,30.10,4,1,9,0.03
2012-12-13,46,40,30,29,27,23,82,61,41,30.38,30.25,6,1,13,0.01
2012-12-14,51,40,30,29,26,24,82,60,35,30.25,30.08,7,2,16,0.00
2012-12-15,48,42,33,38,31,26,82,67,55,30.23,30.11,3,0,11,0.00
2012-12-16,52,49,47,50,46,38,98,89,72,30.11,29.82,7,3,18,0.30
2012-12-17,52,46,43,50,45,42,99,97,96,29.82,29.53,6,2,17,0.22
2012-12-18,59,52,43,55,46,34,99,81,55,29.56,29.39,15,6,25,0.30
2012-12-19,49,43,40,34,28,26,69,55,41,30.04,29.56,13,8,26,0.01
2012-12-20,50,40,31,44,31,25,79,68,55,30.14,29.73,8,2,19,0.00
2012-12-21,56,47,37,55,38,25,96,74,55,29.73,29.06,24,10,45,0.32
2012-12-22,41,38,36,30,23,17,80,55,39,29.78,29.28,18,12,35,0.01
2012-12-23,44,38,33,24,21,17,62,52,33,29.91,29.78,10,4,16,0.00
2012-12-24,42,36,28,39,26,20,93,67,49,30.01,29.84,3,0,9,0.15
2012-12-25,43,40,35,41,33,26,96,80,62,30.17,29.81,9,3,18,0.17
2012-12-26,47,38,32,46,33,24,97,82,70,30.19,29.26,15,6,43,1.10
2012-12-27,49,39,31,48,33,19,98,80,60,29.78,29.15,19,10,33,1.91
2012-12-28,39,34,29,24,22,18,78,62,54,30.01,29.78,12,5,22,0.01
2012-12-29,42,34,29,38,30,23,98,86,75,29.98,29.41,9,2,18,0.22
2012-12-30,37,33,30,28,17,12,83,53,39,30.13,29.52,17,10,35,0.02
2012-12-31,40,34,28,25,19,11,65,54,48,30.14,29.84,11,4,19,0.00
2013-1-1,42,39,31,29,25,14,70,58,45,29.93,29.76,10,6,19,0.00